Nord Copenhagen — 3FNV7 — position and weather

sailwx.info

Track history (hours):
 
Tides and Currents Weather Stations Pressure Air Temp Water Temp Dewpoint Dewpoint Depression Visibility Wind Speed Wind Dir Waves Ship Positions

Nord Copenhagen

Last reported at 2017-Jul-26 16:45 UTC. Time now 2017-Aug-16 19:44 UTC.
Position N 01°15' E 104°03'.
Warning: this ship's position is 21 days out of date.

Length 177 m; draft 9.5 m.

Type: Cargo ship. MMSI: 373334000.

Date/timePositionNaut miles runAvg speedWind from/ knotsBaromVisibWave heightAir tempDewpointWater temp
2017-Jul-26 16:45N 01°15' E 104°03'311.3
2017-Jul-26 16:30N 01°15' E 103°60'510.2
2017-Jul-26 16:00N 01°14' E 103°55'2 4.1
2017-Jul-26 15:30N 01°16' E 103°54'0 0.1
2017-Jul-26 14:48N 01°16' E 103°54'0 0.0
2017-Jul-26 13:57N 01°16' E 103°54'0 0.0
2017-Jul-26 13:30N 01°16' E 103°54'0 0.0
2017-Jul-26 12:57N 01°16' E 103°54'0 0.0
2017-Jul-26 08:51N 01°16' E 103°54'0 0.5
2017-Jul-26 08:30N 01°16' E 103°54'2 4.8
2017-Jul-26 08:00N 01°14' E 103°53'2 3.5
2017-Jul-26 07:30N 01°12' E 103°53'2 5.1
2017-Jul-26 07:00N 01°11' E 103°51'4 7.5
2017-Jul-26 06:31N 01°09' E 103°48'4 8.3
2017-Jul-26 06:01N 01°06' E 103°45'4 8.7
2017-Jul-26 05:30N 01°04' E 103°41'4 7.3
2017-Jul-26 05:01N 01°03' E 103°38'5 9.4
2017-Jul-26 04:31N 01°06' E 103°34'612.0
2017-Jul-26 04:01N 01°09' E 103°29'4 8.9
2017-Jul-26 03:30N 01°12' E 103°25'  
Track history (hours):
 
Tides and Currents Weather Stations Pressure Air Temp Water Temp Dewpoint Dewpoint Depression Visibility Wind Speed Wind Dir Waves Ship Positions

Nord Copenhagen

Last reported at 2017-Jul-26 16:45 UTC. Time now 2017-Aug-16 19:44 UTC.
Position N 01°15' E 104°03'.
Warning: this ship's position is 21 days out of date.

Length 177 m; draft 9.5 m.

Type: Cargo ship. MMSI: 373334000.

Date/timePositionNaut miles runAvg speedWind from/ knotsBaromVisibWave heightAir tempDewpointWater temp
2017-Jul-26 16:45N 01°15' E 104°03'311.3
2017-Jul-26 16:30N 01°15' E 103°60'510.2
2017-Jul-26 16:00N 01°14' E 103°55'2 4.1
2017-Jul-26 15:30N 01°16' E 103°54'0 0.1
2017-Jul-26 14:48N 01°16' E 103°54'0 0.0
2017-Jul-26 13:57N 01°16' E 103°54'0 0.0
2017-Jul-26 13:30N 01°16' E 103°54'0 0.0
2017-Jul-26 12:57N 01°16' E 103°54'0 0.0
2017-Jul-26 08:51N 01°16' E 103°54'0 0.5
2017-Jul-26 08:30N 01°16' E 103°54'2 4.8
2017-Jul-26 08:00N 01°14' E 103°53'2 3.5
2017-Jul-26 07:30N 01°12' E 103°53'2 5.1
2017-Jul-26 07:00N 01°11' E 103°51'4 7.5
2017-Jul-26 06:31N 01°09' E 103°48'4 8.3
2017-Jul-26 06:01N 01°06' E 103°45'4 8.7
2017-Jul-26 05:30N 01°04' E 103°41'4 7.3
2017-Jul-26 05:01N 01°03' E 103°38'5 9.4
2017-Jul-26 04:31N 01°06' E 103°34'612.0
2017-Jul-26 04:01N 01°09' E 103°29'4 8.9
2017-Jul-26 03:30N 01°12' E 103°25'  

Dump ship's entire track history